sensor_id;sensor_type;location;lat;lon;timestamp;P1;durP1;ratioP1;P2;durP2;ratioP2
17173;SDS011;8702;48.130;-1.696;2023-02-24T00:01:36;18.53;;;16.73;;
17173;SDS011;8702;48.130;-1.696;2023-02-24T00:04:05;19.63;;;17.53;;
17173;SDS011;8702;48.130;-1.696;2023-02-24T00:06:34;19.17;;;17.17;;
17173;SDS011;8702;48.130;-1.696;2023-02-24T00:09:03;21.07;;;17.53;;
17173;SDS011;8702;48.130;-1.696;2023-02-24T00:11:34;19.70;;;17.80;;
17173;SDS011;8702;48.130;-1.696;2023-02-24T00:14:03;19.20;;;17.13;;
17173;SDS011;8702;48.130;-1.696;2023-02-24T00:16:31;20.37;;;18.27;;
17173;SDS011;8702;48.130;-1.696;2023-02-24T00:18:59;19.80;;;17.80;;
17173;SDS011;8702;48.130;-1.696;2023-02-24T00:21:26;20.00;;;18.03;;
17173;SDS011;8702;48.130;-1.696;2023-02-24T00:23:54;20.17;;;18.07;;
17173;SDS011;8702;48.130;-1.696;2023-02-24T00:26:23;19.27;;;17.20;;
17173;SDS011;8702;48.130;-1.696;2023-02-24T00:28:52;19.30;;;17.30;;
17173;SDS011;8702;48.130;-1.696;2023-02-24T00:31:19;19.33;;;17.33;;
17173;SDS011;8702;48.130;-1.696;2023-02-24T00:33:48;19.33;;;17.23;;
17173;SDS011;8702;48.130;-1.696;2023-02-24T00:36:16;19.67;;;17.70;;
17173;SDS011;8702;48.130;-1.696;2023-02-24T00:38:48;18.40;;;16.60;;
17173;SDS011;8702;48.130;-1.696;2023-02-24T00:41:16;18.90;;;16.87;;
17173;SDS011;8702;48.130;-1.696;2023-02-24T00:43:46;19.40;;;17.50;;
17173;SDS011;8702;48.130;-1.696;2023-02-24T00:46:16;18.67;;;16.67;;
17173;SDS011;8702;48.130;-1.696;2023-02-24T00:48:45;18.23;;;16.43;;
17173;SDS011;8702;48.130;-1.696;2023-02-24T00:51:13;18.27;;;16.17;;
17173;SDS011;8702;48.130;-1.696;2023-02-24T00:53:42;18.83;;;16.87;;
17173;SDS011;8702;48.130;-1.696;2023-02-24T00:56:10;20.03;;;17.90;;
17173;SDS011;8702;48.130;-1.696;2023-02-24T00:58:37;20.93;;;17.47;;
17173;SDS011;8702;48.130;-1.696;2023-02-24T01:01:04;20.87;;;18.67;;
17173;SDS011;8702;48.130;-1.696;2023-02-24T01:03:39;20.43;;;18.37;;
17173;SDS011;8702;48.130;-1.696;2023-02-24T01:06:10;20.93;;;18.73;;
17173;SDS011;8702;48.130;-1.696;2023-02-24T01:08:38;23.23;;;20.37;;
17173;SDS011;8702;48.130;-1.696;2023-02-24T01:11:11;22.33;;;19.93;;
17173;SDS011;8702;48.130;-1.696;2023-02-24T01:13:57;23.13;;;20.73;;
17173;SDS011;8702;48.130;-1.696;2023-02-24T01:16:25;24.70;;;21.07;;
17173;SDS011;8702;48.130;-1.696;2023-02-24T01:18:54;23.23;;;20.67;;
17173;SDS011;8702;48.130;-1.696;2023-02-24T01:21:20;26.10;;;22.57;;
17173;SDS011;8702;48.130;-1.696;2023-02-24T01:23:48;26.13;;;22.53;;
17173;SDS011;8702;48.130;-1.696;2023-02-24T01:26:16;26.77;;;22.87;;
17173;SDS011;8702;48.130;-1.696;2023-02-24T01:28:44;26.77;;;23.87;;
17173;SDS011;8702;48.130;-1.696;2023-02-24T01:31:12;26.03;;;23.23;;
17173;SDS011;8702;48.130;-1.696;2023-02-24T01:33:42;29.50;;;24.73;;
17173;SDS011;8702;48.130;-1.696;2023-02-24T01:36:12;29.73;;;25.43;;
17173;SDS011;8702;48.130;-1.696;2023-02-24T01:38:40;29.00;;;24.07;;
17173;SDS011;8702;48.130;-1.696;2023-02-24T01:41:08;31.07;;;25.97;;
17173;SDS011;8702;48.130;-1.696;2023-02-24T01:46:26;29.13;;;25.40;;
17173;SDS011;8702;48.130;-1.696;2023-02-24T01:48:56;30.47;;;25.23;;
17173;SDS011;8702;48.130;-1.696;2023-02-24T01:51:28;31.87;;;25.77;;
17173;SDS011;8702;48.130;-1.696;2023-02-24T01:53:56;31.00;;;25.73;;
17173;SDS011;8702;48.130;-1.696;2023-02-24T01:56:23;30.83;;;25.57;;
17173;SDS011;8702;48.130;-1.696;2023-02-24T01:58:54;33.13;;;27.27;;
17173;SDS011;8702;48.130;-1.696;2023-02-24T02:01:21;33.57;;;25.57;;
17173;SDS011;8702;48.130;-1.696;2023-02-24T02:03:48;30.63;;;26.17;;
17173;SDS011;8702;48.130;-1.696;2023-02-24T02:06:16;31.53;;;25.03;;
17173;SDS011;8702;48.130;-1.696;2023-02-24T02:08:44;30.00;;;25.13;;
17173;SDS011;8702;48.130;-1.696;2023-02-24T02:11:12;29.73;;;24.83;;
17173;SDS011;8702;48.130;-1.696;2023-02-24T02:13:44;28.67;;;24.83;;
17173;SDS011;8702;48.130;-1.696;2023-02-24T02:25:28;32.77;;;27.30;;
17173;SDS011;8702;48.130;-1.696;2023-02-24T02:28:10;36.13;;;28.83;;
17173;SDS011;8702;48.130;-1.696;2023-02-24T02:34:24;34.87;;;28.73;;
17173;SDS011;8702;48.130;-1.696;2023-02-24T02:37:01;33.60;;;29.10;;
17173;SDS011;8702;48.130;-1.696;2023-02-24T02:39:34;36.80;;;30.77;;
17173;SDS011;8702;48.130;-1.696;2023-02-24T02:42:10;39.70;;;31.90;;
17173;SDS011;8702;48.130;-1.696;2023-02-24T02:44:46;38.50;;;31.87;;
17173;SDS011;8702;48.130;-1.696;2023-02-24T02:47:21;41.40;;;32.93;;
17173;SDS011;8702;48.130;-1.696;2023-02-24T02:49:55;39.67;;;31.73;;
17173;SDS011;8702;48.130;-1.696;2023-02-24T02:52:27;41.00;;;32.60;;
17173;SDS011;8702;48.130;-1.696;2023-02-24T02:54:59;39.33;;;33.57;;
17173;SDS011;8702;48.130;-1.696;2023-02-24T02:57:33;35.67;;;30.97;;
17173;SDS011;8702;48.130;-1.696;2023-02-24T03:00:05;40.00;;;32.63;;
17173;SDS011;8702;48.130;-1.696;2023-02-24T03:02:37;41.73;;;32.53;;
17173;SDS011;8702;48.130;-1.696;2023-02-24T03:05:10;39.73;;;32.20;;
17173;SDS011;8702;48.130;-1.696;2023-02-24T03:07:42;40.87;;;32.77;;
17173;SDS011;8702;48.130;-1.696;2023-02-24T03:10:14;41.17;;;32.50;;
17173;SDS011;8702;48.130;-1.696;2023-02-24T03:12:46;43.33;;;33.20;;
17173;SDS011;8702;48.130;-1.696;2023-02-24T03:15:16;40.47;;;31.57;;
17173;SDS011;8702;48.130;-1.696;2023-02-24T03:17:46;39.83;;;31.43;;
17173;SDS011;8702;48.130;-1.696;2023-02-24T03:20:21;42.40;;;32.73;;
17173;SDS011;8702;48.130;-1.696;2023-02-24T03:22:53;41.00;;;31.47;;
17173;SDS011;8702;48.130;-1.696;2023-02-24T03:25:27;41.27;;;29.90;;
17173;SDS011;8702;48.130;-1.696;2023-02-24T03:28:03;38.70;;;30.07;;
17173;SDS011;8702;48.130;-1.696;2023-02-24T03:30:37;38.47;;;30.00;;
17173;SDS011;8702;48.130;-1.696;2023-02-24T03:33:08;38.90;;;30.07;;
17173;SDS011;8702;48.130;-1.696;2023-02-24T03:35:43;38.00;;;31.33;;
17173;SDS011;8702;48.130;-1.696;2023-02-24T03:38:10;39.13;;;31.27;;
17173;SDS011;8702;48.130;-1.696;2023-02-24T03:40:39;39.03;;;29.93;;
17173;SDS011;8702;48.130;-1.696;2023-02-24T03:43:08;41.20;;;30.43;;
17173;SDS011;8702;48.130;-1.696;2023-02-24T03:45:41;41.13;;;30.07;;
17173;SDS011;8702;48.130;-1.696;2023-02-24T03:48:10;38.13;;;30.20;;
17173;SDS011;8702;48.130;-1.696;2023-02-24T03:50:37;39.70;;;30.77;;
17173;SDS011;8702;48.130;-1.696;2023-02-24T03:53:11;39.83;;;30.87;;
17173;SDS011;8702;48.130;-1.696;2023-02-24T03:55:57;36.40;;;30.53;;
17173;SDS011;8702;48.130;-1.696;2023-02-24T03:58:31;38.23;;;30.00;;
17173;SDS011;8702;48.130;-1.696;2023-02-24T04:01:09;38.73;;;30.20;;
17173;SDS011;8702;48.130;-1.696;2023-02-24T04:03:43;38.60;;;29.93;;
17173;SDS011;8702;48.130;-1.696;2023-02-24T04:06:24;36.40;;;30.37;;
17173;SDS011;8702;48.130;-1.696;2023-02-24T04:08:59;34.60;;;29.37;;
17173;SDS011;8702;48.130;-1.696;2023-02-24T04:11:35;33.73;;;29.33;;
17173;SDS011;8702;48.130;-1.696;2023-02-24T04:14:11;36.50;;;29.47;;
17173;SDS011;8702;48.130;-1.696;2023-02-24T04:16:46;36.63;;;30.90;;
17173;SDS011;8702;48.130;-1.696;2023-02-24T04:19:18;35.40;;;29.00;;
17173;SDS011;8702;48.130;-1.696;2023-02-24T04:21:48;37.93;;;29.77;;
17173;SDS011;8702;48.130;-1.696;2023-02-24T04:24:18;36.03;;;30.83;;
17173;SDS011;8702;48.130;-1.696;2023-02-24T04:26:48;37.30;;;29.87;;
17173;SDS011;8702;48.130;-1.696;2023-02-24T04:29:18;40.70;;;30.37;;
17173;SDS011;8702;48.130;-1.696;2023-02-24T04:31:48;38.27;;;30.57;;
17173;SDS011;8702;48.130;-1.696;2023-02-24T04:34:17;35.57;;;29.10;;
17173;SDS011;8702;48.130;-1.696;2023-02-24T04:36:44;37.70;;;29.57;;
17173;SDS011;8702;48.130;-1.696;2023-02-24T04:39:14;35.97;;;28.80;;
17173;SDS011;8702;48.130;-1.696;2023-02-24T04:41:44;33.17;;;27.87;;
17173;SDS011;8702;48.130;-1.696;2023-02-24T04:44:13;36.63;;;29.53;;
17173;SDS011;8702;48.130;-1.696;2023-02-24T04:46:42;38.83;;;29.90;;
17173;SDS011;8702;48.130;-1.696;2023-02-24T04:49:09;32.63;;;28.67;;
17173;SDS011;8702;48.130;-1.696;2023-02-24T04:51:37;32.37;;;28.23;;
17173;SDS011;8702;48.130;-1.696;2023-02-24T04:54:06;34.17;;;28.63;;
17173;SDS011;8702;48.130;-1.696;2023-02-24T04:56:34;33.93;;;28.13;;
17173;SDS011;8702;48.130;-1.696;2023-02-24T04:59:02;35.30;;;28.40;;
17173;SDS011;8702;48.130;-1.696;2023-02-24T05:01:29;32.83;;;28.70;;
17173;SDS011;8702;48.130;-1.696;2023-02-24T05:03:56;32.67;;;27.27;;
17173;SDS011;8702;48.130;-1.696;2023-02-24T05:06:24;34.43;;;28.57;;
17173;SDS011;8702;48.130;-1.696;2023-02-24T05:08:51;32.57;;;27.07;;
17173;SDS011;8702;48.130;-1.696;2023-02-24T05:11:18;33.93;;;27.80;;
17173;SDS011;8702;48.130;-1.696;2023-02-24T05:13:45;30.67;;;27.07;;
17173;SDS011;8702;48.130;-1.696;2023-02-24T05:16:14;33.67;;;26.57;;
17173;SDS011;8702;48.130;-1.696;2023-02-24T05:18:44;31.10;;;26.13;;
17173;SDS011;8702;48.130;-1.696;2023-02-24T05:21:12;32.60;;;27.17;;
17173;SDS011;8702;48.130;-1.696;2023-02-24T05:23:57;29.07;;;25.20;;
17173;SDS011;8702;48.130;-1.696;2023-02-24T05:26:30;29.77;;;25.83;;
17173;SDS011;8702;48.130;-1.696;2023-02-24T05:29:00;28.97;;;24.13;;
17173;SDS011;8702;48.130;-1.696;2023-02-24T05:31:29;31.63;;;25.17;;
17173;SDS011;8702;48.130;-1.696;2023-02-24T05:33:57;29.00;;;25.30;;
17173;SDS011;8702;48.130;-1.696;2023-02-24T05:36:26;30.20;;;26.87;;
17173;SDS011;8702;48.130;-1.696;2023-02-24T05:38:54;29.50;;;25.40;;
17173;SDS011;8702;48.130;-1.696;2023-02-24T05:41:24;28.97;;;24.80;;
17173;SDS011;8702;48.130;-1.696;2023-02-24T05:43:56;29.17;;;25.67;;
17173;SDS011;8702;48.130;-1.696;2023-02-24T05:46:30;27.63;;;24.53;;
17173;SDS011;8702;48.130;-1.696;2023-02-24T05:48:59;30.47;;;25.43;;
17173;SDS011;8702;48.130;-1.696;2023-02-24T05:51:28;29.80;;;26.17;;
17173;SDS011;8702;48.130;-1.696;2023-02-24T05:53:59;31.70;;;27.57;;
17173;SDS011;8702;48.130;-1.696;2023-02-24T05:56:28;31.03;;;26.13;;
17173;SDS011;8702;48.130;-1.696;2023-02-24T05:58:57;31.17;;;25.97;;
17173;SDS011;8702;48.130;-1.696;2023-02-24T06:01:27;28.90;;;25.17;;
17173;SDS011;8702;48.130;-1.696;2023-02-24T06:03:57;28.43;;;24.43;;
17173;SDS011;8702;48.130;-1.696;2023-02-24T06:06:30;30.30;;;24.03;;
17173;SDS011;8702;48.130;-1.696;2023-02-24T06:09:00;26.87;;;23.97;;
17173;SDS011;8702;48.130;-1.696;2023-02-24T06:11:31;27.33;;;24.03;;
17173;SDS011;8702;48.130;-1.696;2023-02-24T06:13:59;29.83;;;25.17;;
17173;SDS011;8702;48.130;-1.696;2023-02-24T06:16:26;29.50;;;24.90;;
17173;SDS011;8702;48.130;-1.696;2023-02-24T06:18:53;30.03;;;25.13;;
17173;SDS011;8702;48.130;-1.696;2023-02-24T06:21:22;31.60;;;24.20;;
17173;SDS011;8702;48.130;-1.696;2023-02-24T06:23:50;28.67;;;24.97;;
17173;SDS011;8702;48.130;-1.696;2023-02-24T06:26:16;31.23;;;25.80;;
17173;SDS011;8702;48.130;-1.696;2023-02-24T06:28:45;34.30;;;24.57;;
17173;SDS011;8702;48.130;-1.696;2023-02-24T06:31:15;28.33;;;24.17;;
17173;SDS011;8702;48.130;-1.696;2023-02-24T06:33:42;30.07;;;24.60;;
17173;SDS011;8702;48.130;-1.696;2023-02-24T06:36:09;29.90;;;24.20;;
17173;SDS011;8702;48.130;-1.696;2023-02-24T06:38:39;29.43;;;25.37;;
17173;SDS011;8702;48.130;-1.696;2023-02-24T06:41:07;30.73;;;24.53;;
17173;SDS011;8702;48.130;-1.696;2023-02-24T06:43:36;30.77;;;24.50;;
17173;SDS011;8702;48.130;-1.696;2023-02-24T06:46:04;31.83;;;24.67;;
17173;SDS011;8702;48.130;-1.696;2023-02-24T06:48:31;30.90;;;24.50;;
17173;SDS011;8702;48.130;-1.696;2023-02-24T06:51:01;31.00;;;24.93;;
17173;SDS011;8702;48.130;-1.696;2023-02-24T06:53:30;29.90;;;24.27;;
17173;SDS011;8702;48.130;-1.696;2023-02-24T06:56:02;33.47;;;24.73;;
17173;SDS011;8702;48.130;-1.696;2023-02-24T06:58:32;30.67;;;23.77;;
17173;SDS011;8702;48.130;-1.696;2023-02-24T07:00:59;30.60;;;25.20;;
17173;SDS011;8702;48.130;-1.696;2023-02-24T07:03:28;30.37;;;24.63;;
17173;SDS011;8702;48.130;-1.696;2023-02-24T07:06:04;31.10;;;24.07;;
17173;SDS011;8702;48.130;-1.696;2023-02-24T07:08:45;29.60;;;24.33;;
17173;SDS011;8702;48.130;-1.696;2023-02-24T07:11:17;31.40;;;25.23;;
17173;SDS011;8702;48.130;-1.696;2023-02-24T07:13:44;29.23;;;24.67;;
17173;SDS011;8702;48.130;-1.696;2023-02-24T07:16:12;31.03;;;24.60;;
17173;SDS011;8702;48.130;-1.696;2023-02-24T07:18:40;31.63;;;24.07;;
17173;SDS011;8702;48.130;-1.696;2023-02-24T07:21:09;27.43;;;22.93;;
17173;SDS011;8702;48.130;-1.696;2023-02-24T07:23:37;26.70;;;23.50;;
17173;SDS011;8702;48.130;-1.696;2023-02-24T07:26:08;31.37;;;24.23;;
17173;SDS011;8702;48.130;-1.696;2023-02-24T07:28:38;30.67;;;24.37;;
17173;SDS011;8702;48.130;-1.696;2023-02-24T07:31:07;27.93;;;23.70;;
17173;SDS011;8702;48.130;-1.696;2023-02-24T07:33:36;29.57;;;24.43;;
17173;SDS011;8702;48.130;-1.696;2023-02-24T07:36:03;29.23;;;25.13;;
17173;SDS011;8702;48.130;-1.696;2023-02-24T07:38:34;28.60;;;24.60;;
17173;SDS011;8702;48.130;-1.696;2023-02-24T07:41:02;30.40;;;25.53;;
17173;SDS011;8702;48.130;-1.696;2023-02-24T07:43:30;28.97;;;24.37;;
17173;SDS011;8702;48.130;-1.696;2023-02-24T07:46:05;30.17;;;24.63;;
17173;SDS011;8702;48.130;-1.696;2023-02-24T07:48:33;31.77;;;24.63;;
17173;SDS011;8702;48.130;-1.696;2023-02-24T07:51:01;32.60;;;26.63;;
17173;SDS011;8702;48.130;-1.696;2023-02-24T07:53:32;34.87;;;25.93;;
17173;SDS011;8702;48.130;-1.696;2023-02-24T07:55:59;31.47;;;26.07;;
17173;SDS011;8702;48.130;-1.696;2023-02-24T07:58:30;30.77;;;25.73;;
17173;SDS011;8702;48.130;-1.696;2023-02-24T08:00:59;31.33;;;25.07;;
17173;SDS011;8702;48.130;-1.696;2023-02-24T08:03:34;31.47;;;24.97;;
17173;SDS011;8702;48.130;-1.696;2023-02-24T08:06:05;30.70;;;25.20;;
17173;SDS011;8702;48.130;-1.696;2023-02-24T08:08:39;33.63;;;26.00;;
17173;SDS011;8702;48.130;-1.696;2023-02-24T08:11:38;32.17;;;25.53;;
17173;SDS011;8702;48.130;-1.696;2023-02-24T08:14:06;30.23;;;25.00;;
17173;SDS011;8702;48.130;-1.696;2023-02-24T08:16:38;29.40;;;24.13;;
17173;SDS011;8702;48.130;-1.696;2023-02-24T08:19:05;32.03;;;25.23;;
17173;SDS011;8702;48.130;-1.696;2023-02-24T08:21:34;30.80;;;24.77;;
17173;SDS011;8702;48.130;-1.696;2023-02-24T08:24:05;34.03;;;25.67;;
17173;SDS011;8702;48.130;-1.696;2023-02-24T08:26:43;30.50;;;24.17;;
17173;SDS011;8702;48.130;-1.696;2023-02-24T08:29:10;35.37;;;25.87;;
17173;SDS011;8702;48.130;-1.696;2023-02-24T08:31:37;31.57;;;24.13;;
17173;SDS011;8702;48.130;-1.696;2023-02-24T08:34:04;30.07;;;24.73;;
17173;SDS011;8702;48.130;-1.696;2023-02-24T08:36:31;31.93;;;24.27;;
17173;SDS011;8702;48.130;-1.696;2023-02-24T08:38:58;32.63;;;24.53;;
17173;SDS011;8702;48.130;-1.696;2023-02-24T08:41:25;31.07;;;23.87;;
17173;SDS011;8702;48.130;-1.696;2023-02-24T08:44:10;28.93;;;23.47;;
17173;SDS011;8702;48.130;-1.696;2023-02-24T08:46:43;28.00;;;21.83;;
17173;SDS011;8702;48.130;-1.696;2023-02-24T08:49:13;30.87;;;23.90;;
17173;SDS011;8702;48.130;-1.696;2023-02-24T08:51:41;26.30;;;22.00;;
17173;SDS011;8702;48.130;-1.696;2023-02-24T08:54:10;25.77;;;21.07;;
17173;SDS011;8702;48.130;-1.696;2023-02-24T08:56:40;27.23;;;20.23;;
17173;SDS011;8702;48.130;-1.696;2023-02-24T08:59:09;24.80;;;20.43;;
17173;SDS011;8702;48.130;-1.696;2023-02-24T09:01:53;24.33;;;20.40;;
17173;SDS011;8702;48.130;-1.696;2023-02-24T09:04:41;24.40;;;19.07;;
17173;SDS011;8702;48.130;-1.696;2023-02-24T09:07:13;25.67;;;20.10;;
17173;SDS011;8702;48.130;-1.696;2023-02-24T09:09:41;23.37;;;19.83;;
17173;SDS011;8702;48.130;-1.696;2023-02-24T09:12:10;25.03;;;19.93;;
17173;SDS011;8702;48.130;-1.696;2023-02-24T09:14:48;23.57;;;19.57;;
17173;SDS011;8702;48.130;-1.696;2023-02-24T09:17:19;22.77;;;19.13;;
17173;SDS011;8702;48.130;-1.696;2023-02-24T09:20:04;24.17;;;19.13;;
17173;SDS011;8702;48.130;-1.696;2023-02-24T09:23:20;21.33;;;17.03;;
17173;SDS011;8702;48.130;-1.696;2023-02-24T09:25:54;21.30;;;17.80;;
17173;SDS011;8702;48.130;-1.696;2023-02-24T09:28:22;21.57;;;16.83;;
17173;SDS011;8702;48.130;-1.696;2023-02-24T09:30:52;21.53;;;16.70;;
17173;SDS011;8702;48.130;-1.696;2023-02-24T09:33:21;17.10;;;14.77;;
17173;SDS011;8702;48.130;-1.696;2023-02-24T09:35:51;21.63;;;15.70;;
17173;SDS011;8702;48.130;-1.696;2023-02-24T09:38:27;15.57;;;13.47;;
17173;SDS011;8702;48.130;-1.696;2023-02-24T09:41:23;18.77;;;12.00;;
17173;SDS011;8702;48.130;-1.696;2023-02-24T09:44:11;14.17;;;11.73;;
17173;SDS011;8702;48.130;-1.696;2023-02-24T09:46:44;15.20;;;11.53;;
17173;SDS011;8702;48.130;-1.696;2023-02-24T09:49:18;13.63;;;10.70;;
17173;SDS011;8702;48.130;-1.696;2023-02-24T09:51:49;12.00;;;9.47;;
17173;SDS011;8702;48.130;-1.696;2023-02-24T09:54:24;12.33;;;8.53;;
17173;SDS011;8702;48.130;-1.696;2023-02-24T09:56:57;11.40;;;8.57;;
17173;SDS011;8702;48.130;-1.696;2023-02-24T09:59:35;12.27;;;8.47;;
17173;SDS011;8702;48.130;-1.696;2023-02-24T10:02:17;12.43;;;7.87;;
17173;SDS011;8702;48.130;-1.696;2023-02-24T10:04:56;9.17;;;7.20;;
17173;SDS011;8702;48.130;-1.696;2023-02-24T10:07:32;8.73;;;6.70;;
17173;SDS011;8702;48.130;-1.696;2023-02-24T10:10:04;9.67;;;6.93;;
17173;SDS011;8702;48.130;-1.696;2023-02-24T10:12:45;8.23;;;7.10;;
17173;SDS011;8702;48.130;-1.696;2023-02-24T10:15:17;10.80;;;7.43;;
17173;SDS011;8702;48.130;-1.696;2023-02-24T10:18:17;9.20;;;6.60;;
17173;SDS011;8702;48.130;-1.696;2023-02-24T10:20:52;9.60;;;7.10;;
17173;SDS011;8702;48.130;-1.696;2023-02-24T10:23:21;10.07;;;7.30;;
17173;SDS011;8702;48.130;-1.696;2023-02-24T10:25:58;10.30;;;6.67;;
17173;SDS011;8702;48.130;-1.696;2023-02-24T10:28:28;9.20;;;5.87;;
17173;SDS011;8702;48.130;-1.696;2023-02-24T10:31:02;8.77;;;5.40;;
17173;SDS011;8702;48.130;-1.696;2023-02-24T10:33:36;7.73;;;5.83;;
17173;SDS011;8702;48.130;-1.696;2023-02-24T10:36:09;9.23;;;5.93;;
17173;SDS011;8702;48.130;-1.696;2023-02-24T10:38:41;8.50;;;6.07;;
17173;SDS011;8702;48.130;-1.696;2023-02-24T10:41:11;9.93;;;6.13;;
17173;SDS011;8702;48.130;-1.696;2023-02-24T10:43:38;6.87;;;5.40;;
17173;SDS011;8702;48.130;-1.696;2023-02-24T10:46:23;11.07;;;6.33;;
17173;SDS011;8702;48.130;-1.696;2023-02-24T10:48:54;9.90;;;6.10;;
17173;SDS011;8702;48.130;-1.696;2023-02-24T10:51:28;10.17;;;6.37;;
17173;SDS011;8702;48.130;-1.696;2023-02-24T10:54:08;9.00;;;6.07;;
17173;SDS011;8702;48.130;-1.696;2023-02-24T10:56:58;8.03;;;5.43;;
17173;SDS011;8702;48.130;-1.696;2023-02-24T10:59:41;13.53;;;6.23;;
17173;SDS011;8702;48.130;-1.696;2023-02-24T11:02:34;11.20;;;6.13;;
17173;SDS011;8702;48.130;-1.696;2023-02-24T11:05:22;6.70;;;5.87;;
17173;SDS011;8702;48.130;-1.696;2023-02-24T11:08:05;9.93;;;6.40;;
17173;SDS011;8702;48.130;-1.696;2023-02-24T11:10:40;9.13;;;5.87;;
17173;SDS011;8702;48.130;-1.696;2023-02-24T11:13:17;8.53;;;5.90;;
17173;SDS011;8702;48.130;-1.696;2023-02-24T11:16:03;12.30;;;5.40;;
17173;SDS011;8702;48.130;-1.696;2023-02-24T11:18:56;7.07;;;5.13;;
17173;SDS011;8702;48.130;-1.696;2023-02-24T11:21:25;14.07;;;5.80;;
17173;SDS011;8702;48.130;-1.696;2023-02-24T11:23:53;9.43;;;5.53;;
17173;SDS011;8702;48.130;-1.696;2023-02-24T11:26:23;11.03;;;5.77;;
17173;SDS011;8702;48.130;-1.696;2023-02-24T11:31:41;9.30;;;5.70;;
17173;SDS011;8702;48.130;-1.696;2023-02-24T11:34:14;7.67;;;5.43;;
17173;SDS011;8702;48.130;-1.696;2023-02-24T11:36:47;8.07;;;5.37;;
17173;SDS011;8702;48.130;-1.696;2023-02-24T11:42:11;8.67;;;4.93;;
17173;SDS011;8702;48.130;-1.696;2023-02-24T11:44:42;9.33;;;5.63;;
17173;SDS011;8702;48.130;-1.696;2023-02-24T11:47:12;9.80;;;5.37;;
17173;SDS011;8702;48.130;-1.696;2023-02-24T11:49:41;8.53;;;5.27;;
17173;SDS011;8702;48.130;-1.696;2023-02-24T11:52:13;9.33;;;5.47;;
17173;SDS011;8702;48.130;-1.696;2023-02-24T11:54:42;9.17;;;5.43;;
17173;SDS011;8702;48.130;-1.696;2023-02-24T11:57:11;10.23;;;5.47;;
17173;SDS011;8702;48.130;-1.696;2023-02-24T11:59:41;8.57;;;5.70;;
17173;SDS011;8702;48.130;-1.696;2023-02-24T12:02:12;11.47;;;5.57;;
17173;SDS011;8702;48.130;-1.696;2023-02-24T12:04:42;6.67;;;5.00;;
17173;SDS011;8702;48.130;-1.696;2023-02-24T12:07:16;9.53;;;5.73;;
17173;SDS011;8702;48.130;-1.696;2023-02-24T12:09:45;9.37;;;5.53;;
17173;SDS011;8702;48.130;-1.696;2023-02-24T12:12:15;11.30;;;5.33;;
17173;SDS011;8702;48.130;-1.696;2023-02-24T12:14:45;8.53;;;5.70;;
17173;SDS011;8702;48.130;-1.696;2023-02-24T12:17:15;9.20;;;5.07;;
17173;SDS011;8702;48.130;-1.696;2023-02-24T12:19:47;9.63;;;5.37;;
17173;SDS011;8702;48.130;-1.696;2023-02-24T12:22:20;10.20;;;5.73;;
17173;SDS011;8702;48.130;-1.696;2023-02-24T12:24:50;9.97;;;5.20;;
17173;SDS011;8702;48.130;-1.696;2023-02-24T12:27:22;9.20;;;5.10;;
17173;SDS011;8702;48.130;-1.696;2023-02-24T12:29:54;8.80;;;5.20;;
17173;SDS011;8702;48.130;-1.696;2023-02-24T12:32:33;10.20;;;5.40;;
17173;SDS011;8702;48.130;-1.696;2023-02-24T12:35:04;9.27;;;5.80;;
17173;SDS011;8702;48.130;-1.696;2023-02-24T12:37:47;12.67;;;6.30;;
17173;SDS011;8702;48.130;-1.696;2023-02-24T12:40:20;11.40;;;5.80;;
17173;SDS011;8702;48.130;-1.696;2023-02-24T12:42:51;10.20;;;5.27;;
17173;SDS011;8702;48.130;-1.696;2023-02-24T12:45:25;13.40;;;6.07;;
17173;SDS011;8702;48.130;-1.696;2023-02-24T12:47:56;9.23;;;5.03;;
17173;SDS011;8702;48.130;-1.696;2023-02-24T12:50:29;7.90;;;5.40;;
17173;SDS011;8702;48.130;-1.696;2023-02-24T12:53:01;8.83;;;5.27;;
17173;SDS011;8702;48.130;-1.696;2023-02-24T12:55:34;7.83;;;5.50;;
17173;SDS011;8702;48.130;-1.696;2023-02-24T12:58:05;10.97;;;5.30;;
17173;SDS011;8702;48.130;-1.696;2023-02-24T13:00:36;10.13;;;5.73;;
17173;SDS011;8702;48.130;-1.696;2023-02-24T13:03:07;12.70;;;5.97;;
17173;SDS011;8702;48.130;-1.696;2023-02-24T13:05:42;10.70;;;5.90;;
17173;SDS011;8702;48.130;-1.696;2023-02-24T13:08:16;9.83;;;5.70;;
17173;SDS011;8702;48.130;-1.696;2023-02-24T13:10:45;8.83;;;5.23;;
17173;SDS011;8702;48.130;-1.696;2023-02-24T13:13:13;11.73;;;5.50;;
17173;SDS011;8702;48.130;-1.696;2023-02-24T13:15:47;16.47;;;5.97;;
17173;SDS011;8702;48.130;-1.696;2023-02-24T13:18:21;9.47;;;5.27;;
17173;SDS011;8702;48.130;-1.696;2023-02-24T13:20:49;10.43;;;5.13;;
17173;SDS011;8702;48.130;-1.696;2023-02-24T13:23:28;11.40;;;5.97;;
17173;SDS011;8702;48.130;-1.696;2023-02-24T13:25:56;9.20;;;5.40;;
17173;SDS011;8702;48.130;-1.696;2023-02-24T13:28:23;12.10;;;5.50;;
17173;SDS011;8702;48.130;-1.696;2023-02-24T13:30:56;10.67;;;5.30;;
17173;SDS011;8702;48.130;-1.696;2023-02-24T13:33:26;8.10;;;5.47;;
17173;SDS011;8702;48.130;-1.696;2023-02-24T13:36:04;11.53;;;5.50;;
17173;SDS011;8702;48.130;-1.696;2023-02-24T13:38:37;11.63;;;5.17;;
17173;SDS011;8702;48.130;-1.696;2023-02-24T13:41:05;10.00;;;5.17;;
17173;SDS011;8702;48.130;-1.696;2023-02-24T13:43:33;9.90;;;5.30;;
17173;SDS011;8702;48.130;-1.696;2023-02-24T13:46:00;10.53;;;5.33;;
17173;SDS011;8702;48.130;-1.696;2023-02-24T13:48:37;8.77;;;5.27;;
17173;SDS011;8702;48.130;-1.696;2023-02-24T13:51:14;9.33;;;5.10;;
17173;SDS011;8702;48.130;-1.696;2023-02-24T13:53:54;11.30;;;5.00;;
17173;SDS011;8702;48.130;-1.696;2023-02-24T13:56:25;10.40;;;5.40;;
17173;SDS011;8702;48.130;-1.696;2023-02-24T13:59:04;9.20;;;4.93;;
17173;SDS011;8702;48.130;-1.696;2023-02-24T14:01:43;12.10;;;5.47;;
17173;SDS011;8702;48.130;-1.696;2023-02-24T14:04:12;9.07;;;5.67;;
17173;SDS011;8702;48.130;-1.696;2023-02-24T14:06:44;9.30;;;5.07;;
17173;SDS011;8702;48.130;-1.696;2023-02-24T14:09:14;9.43;;;4.87;;
17173;SDS011;8702;48.130;-1.696;2023-02-24T14:11:42;10.03;;;5.13;;
17173;SDS011;8702;48.130;-1.696;2023-02-24T14:14:12;10.37;;;5.40;;
17173;SDS011;8702;48.130;-1.696;2023-02-24T14:16:42;12.30;;;5.37;;
17173;SDS011;8702;48.130;-1.696;2023-02-24T14:19:12;14.13;;;5.27;;
17173;SDS011;8702;48.130;-1.696;2023-02-24T14:21:46;11.77;;;5.33;;
17173;SDS011;8702;48.130;-1.696;2023-02-24T14:24:15;17.63;;;5.07;;
17173;SDS011;8702;48.130;-1.696;2023-02-24T14:26:43;9.47;;;4.90;;
17173;SDS011;8702;48.130;-1.696;2023-02-24T14:29:12;9.63;;;5.47;;
17173;SDS011;8702;48.130;-1.696;2023-02-24T14:31:40;8.53;;;4.97;;
17173;SDS011;8702;48.130;-1.696;2023-02-24T14:34:11;10.67;;;5.43;;
17173;SDS011;8702;48.130;-1.696;2023-02-24T14:36:42;9.00;;;5.43;;
17173;SDS011;8702;48.130;-1.696;2023-02-24T14:39:12;14.70;;;6.30;;
17173;SDS011;8702;48.130;-1.696;2023-02-24T14:41:42;13.23;;;6.23;;
17173;SDS011;8702;48.130;-1.696;2023-02-24T14:44:20;12.57;;;5.57;;
17173;SDS011;8702;48.130;-1.696;2023-02-24T14:46:48;10.37;;;5.47;;
17173;SDS011;8702;48.130;-1.696;2023-02-24T14:49:17;11.70;;;5.47;;
17173;SDS011;8702;48.130;-1.696;2023-02-24T14:51:44;14.53;;;5.27;;
17173;SDS011;8702;48.130;-1.696;2023-02-24T14:54:14;14.00;;;5.67;;
17173;SDS011;8702;48.130;-1.696;2023-02-24T14:56:44;12.27;;;5.33;;
17173;SDS011;8702;48.130;-1.696;2023-02-24T14:59:13;11.30;;;5.30;;
17173;SDS011;8702;48.130;-1.696;2023-02-24T15:01:42;8.23;;;4.43;;
17173;SDS011;8702;48.130;-1.696;2023-02-24T15:04:11;9.30;;;5.03;;
17173;SDS011;8702;48.130;-1.696;2023-02-24T15:06:40;8.13;;;4.47;;
17173;SDS011;8702;48.130;-1.696;2023-02-24T15:09:10;10.30;;;4.53;;
17173;SDS011;8702;48.130;-1.696;2023-02-24T15:11:38;8.43;;;3.90;;
17173;SDS011;8702;48.130;-1.696;2023-02-24T15:14:14;10.37;;;4.33;;
17173;SDS011;8702;48.130;-1.696;2023-02-24T15:16:44;9.40;;;4.63;;